sensor_id;sensor_type;location;lat;lon;timestamp;P1;durP1;ratioP1;P2;durP2;ratioP2
41923;SDS011;27613;48.116;11.656;2023-04-03T00:01:29;13.65;;;8.05;;
41923;SDS011;27613;48.116;11.656;2023-04-03T00:03:55;12.13;;;8.32;;
41923;SDS011;27613;48.116;11.656;2023-04-03T00:06:21;14.43;;;7.82;;
41923;SDS011;27613;48.116;11.656;2023-04-03T00:08:47;10.57;;;7.32;;
41923;SDS011;27613;48.116;11.656;2023-04-03T00:11:13;8.68;;;7.30;;
41923;SDS011;27613;48.116;11.656;2023-04-03T00:13:40;9.32;;;6.85;;
41923;SDS011;27613;48.116;11.656;2023-04-03T00:16:06;11.55;;;7.28;;
41923;SDS011;27613;48.116;11.656;2023-04-03T00:18:32;8.35;;;6.75;;
41923;SDS011;27613;48.116;11.656;2023-04-03T00:20:58;8.35;;;6.97;;
41923;SDS011;27613;48.116;11.656;2023-04-03T00:23:23;9.82;;;6.85;;
41923;SDS011;27613;48.116;11.656;2023-04-03T00:25:50;8.07;;;6.45;;
41923;SDS011;27613;48.116;11.656;2023-04-03T00:28:15;8.48;;;6.60;;
41923;SDS011;27613;48.116;11.656;2023-04-03T00:30:41;8.98;;;6.85;;
41923;SDS011;27613;48.116;11.656;2023-04-03T00:33:06;11.13;;;7.40;;
41923;SDS011;27613;48.116;11.656;2023-04-03T00:35:33;8.05;;;7.07;;
41923;SDS011;27613;48.116;11.656;2023-04-03T00:37:59;8.40;;;7.15;;
41923;SDS011;27613;48.116;11.656;2023-04-03T00:40:25;9.00;;;7.10;;
41923;SDS011;27613;48.116;11.656;2023-04-03T00:42:55;9.98;;;7.00;;
41923;SDS011;27613;48.116;11.656;2023-04-03T00:47:50;11.73;;;6.88;;
41923;SDS011;27613;48.116;11.656;2023-04-03T00:50:16;8.23;;;6.40;;
41923;SDS011;27613;48.116;11.656;2023-04-03T00:52:42;8.05;;;6.57;;
41923;SDS011;27613;48.116;11.656;2023-04-03T00:55:11;9.40;;;6.30;;
41923;SDS011;27613;48.116;11.656;2023-04-03T00:57:37;9.25;;;6.90;;
41923;SDS011;27613;48.116;11.656;2023-04-03T01:00:08;9.13;;;7.28;;
41923;SDS011;27613;48.116;11.656;2023-04-03T01:02:35;9.85;;;6.85;;
41923;SDS011;27613;48.116;11.656;2023-04-03T01:05:01;9.93;;;6.57;;
41923;SDS011;27613;48.116;11.656;2023-04-03T01:07:29;22.80;;;7.72;;
41923;SDS011;27613;48.116;11.656;2023-04-03T01:09:57;11.02;;;6.82;;
41923;SDS011;27613;48.116;11.656;2023-04-03T01:12:29;7.50;;;6.22;;
41923;SDS011;27613;48.116;11.656;2023-04-03T01:15:12;7.85;;;6.38;;
41923;SDS011;27613;48.116;11.656;2023-04-03T01:17:45;8.07;;;6.57;;
41923;SDS011;27613;48.116;11.656;2023-04-03T01:25:32;7.13;;;5.88;;
41923;SDS011;27613;48.116;11.656;2023-04-03T01:27:58;7.22;;;5.82;;
41923;SDS011;27613;48.116;11.656;2023-04-03T01:30:26;10.30;;;6.90;;
41923;SDS011;27613;48.116;11.656;2023-04-03T01:32:56;11.75;;;6.45;;
41923;SDS011;27613;48.116;11.656;2023-04-03T01:35:22;10.55;;;7.43;;
41923;SDS011;27613;48.116;11.656;2023-04-03T01:37:48;10.38;;;6.68;;
41923;SDS011;27613;48.116;11.656;2023-04-03T01:40:13;8.43;;;6.53;;
41923;SDS011;27613;48.116;11.656;2023-04-03T01:42:39;6.22;;;5.60;;
41923;SDS011;27613;48.116;11.656;2023-04-03T01:45:04;8.63;;;6.35;;
41923;SDS011;27613;48.116;11.656;2023-04-03T01:47:30;7.88;;;6.07;;
41923;SDS011;27613;48.116;11.656;2023-04-03T01:49:56;8.02;;;6.47;;
41923;SDS011;27613;48.116;11.656;2023-04-03T01:52:21;7.13;;;6.15;;
41923;SDS011;27613;48.116;11.656;2023-04-03T01:54:47;8.75;;;6.65;;
41923;SDS011;27613;48.116;11.656;2023-04-03T01:57:12;8.00;;;6.32;;
41923;SDS011;27613;48.116;11.656;2023-04-03T01:59:40;7.53;;;5.97;;
41923;SDS011;27613;48.116;11.656;2023-04-03T02:02:05;10.15;;;6.47;;
41923;SDS011;27613;48.116;11.656;2023-04-03T02:04:31;7.03;;;6.30;;
41923;SDS011;27613;48.116;11.656;2023-04-03T02:06:57;10.93;;;6.63;;
41923;SDS011;27613;48.116;11.656;2023-04-03T02:09:22;7.82;;;6.35;;
41923;SDS011;27613;48.116;11.656;2023-04-03T02:11:48;8.65;;;5.95;;
41923;SDS011;27613;48.116;11.656;2023-04-03T02:14:13;8.85;;;6.30;;
41923;SDS011;27613;48.116;11.656;2023-04-03T02:16:39;8.55;;;6.53;;
41923;SDS011;27613;48.116;11.656;2023-04-03T02:19:04;10.45;;;6.25;;
41923;SDS011;27613;48.116;11.656;2023-04-03T02:21:30;7.22;;;5.78;;
41923;SDS011;27613;48.116;11.656;2023-04-03T02:23:55;6.90;;;5.45;;
41923;SDS011;27613;48.116;11.656;2023-04-03T02:26:21;7.65;;;5.72;;
41923;SDS011;27613;48.116;11.656;2023-04-03T02:28:47;12.63;;;6.07;;
41923;SDS011;27613;48.116;11.656;2023-04-03T02:31:12;9.02;;;6.18;;
41923;SDS011;27613;48.116;11.656;2023-04-03T02:33:38;7.82;;;5.93;;
41923;SDS011;27613;48.116;11.656;2023-04-03T02:36:04;9.23;;;6.05;;
41923;SDS011;27613;48.116;11.656;2023-04-03T02:38:31;6.25;;;5.15;;
41923;SDS011;27613;48.116;11.656;2023-04-03T02:41:01;6.50;;;5.05;;
41923;SDS011;27613;48.116;11.656;2023-04-03T02:43:33;7.50;;;5.43;;
41923;SDS011;27613;48.116;11.656;2023-04-03T02:45:59;8.30;;;6.25;;
41923;SDS011;27613;48.116;11.656;2023-04-03T02:48:25;7.90;;;5.25;;
41923;SDS011;27613;48.116;11.656;2023-04-03T02:50:51;6.78;;;5.22;;
41923;SDS011;27613;48.116;11.656;2023-04-03T02:53:16;7.97;;;5.60;;
41923;SDS011;27613;48.116;11.656;2023-04-03T02:55:42;7.78;;;4.72;;
41923;SDS011;27613;48.116;11.656;2023-04-03T02:58:08;8.43;;;5.32;;
41923;SDS011;27613;48.116;11.656;2023-04-03T03:00:34;5.55;;;4.47;;
41923;SDS011;27613;48.116;11.656;2023-04-03T03:03:00;5.70;;;4.57;;
41923;SDS011;27613;48.116;11.656;2023-04-03T03:05:26;7.78;;;4.63;;
41923;SDS011;27613;48.116;11.656;2023-04-03T03:07:52;7.32;;;4.68;;
41923;SDS011;27613;48.116;11.656;2023-04-03T03:10:18;5.32;;;4.70;;
41923;SDS011;27613;48.116;11.656;2023-04-03T03:12:43;6.63;;;4.10;;
41923;SDS011;27613;48.116;11.656;2023-04-03T03:15:09;5.32;;;4.15;;
41923;SDS011;27613;48.116;11.656;2023-04-03T03:17:35;5.55;;;4.45;;
41923;SDS011;27613;48.116;11.656;2023-04-03T03:20:01;6.65;;;4.53;;
41923;SDS011;27613;48.116;11.656;2023-04-03T03:22:27;4.50;;;3.85;;
41923;SDS011;27613;48.116;11.656;2023-04-03T03:24:53;5.18;;;3.45;;
41923;SDS011;27613;48.116;11.656;2023-04-03T03:27:19;5.85;;;3.67;;
41923;SDS011;27613;48.116;11.656;2023-04-03T03:29:45;5.63;;;3.90;;
41923;SDS011;27613;48.116;11.656;2023-04-03T03:32:11;4.93;;;3.72;;
41923;SDS011;27613;48.116;11.656;2023-04-03T03:34:36;9.75;;;4.30;;
41923;SDS011;27613;48.116;11.656;2023-04-03T03:37:02;5.45;;;3.63;;
41923;SDS011;27613;48.116;11.656;2023-04-03T03:39:28;3.95;;;3.45;;
41923;SDS011;27613;48.116;11.656;2023-04-03T03:41:53;5.03;;;3.58;;
41923;SDS011;27613;48.116;11.656;2023-04-03T03:44:19;13.13;;;6.72;;
41923;SDS011;27613;48.116;11.656;2023-04-03T03:46:45;6.53;;;4.22;;
41923;SDS011;27613;48.116;11.656;2023-04-03T03:49:11;5.28;;;3.67;;
41923;SDS011;27613;48.116;11.656;2023-04-03T03:51:37;5.20;;;3.15;;
41923;SDS011;27613;48.116;11.656;2023-04-03T03:54:03;5.07;;;3.28;;
41923;SDS011;27613;48.116;11.656;2023-04-03T03:56:29;4.18;;;3.30;;
41923;SDS011;27613;48.116;11.656;2023-04-03T03:58:55;5.32;;;3.70;;
41923;SDS011;27613;48.116;11.656;2023-04-03T04:01:21;4.97;;;3.50;;
41923;SDS011;27613;48.116;11.656;2023-04-03T04:03:48;4.65;;;3.47;;
41923;SDS011;27613;48.116;11.656;2023-04-03T04:06:13;3.95;;;3.28;;
41923;SDS011;27613;48.116;11.656;2023-04-03T04:08:40;6.22;;;3.72;;
41923;SDS011;27613;48.116;11.656;2023-04-03T04:11:06;8.93;;;3.33;;
41923;SDS011;27613;48.116;11.656;2023-04-03T04:13:32;6.82;;;3.45;;
41923;SDS011;27613;48.116;11.656;2023-04-03T04:15:57;5.32;;;3.55;;
41923;SDS011;27613;48.116;11.656;2023-04-03T04:18:23;5.63;;;3.65;;
41923;SDS011;27613;48.116;11.656;2023-04-03T04:20:48;4.47;;;3.63;;
41923;SDS011;27613;48.116;11.656;2023-04-03T04:23:15;5.55;;;3.42;;
41923;SDS011;27613;48.116;11.656;2023-04-03T04:25:43;5.10;;;3.05;;
41923;SDS011;27613;48.116;11.656;2023-04-03T04:28:10;5.70;;;3.38;;
41923;SDS011;27613;48.116;11.656;2023-04-03T04:30:36;6.47;;;3.58;;
41923;SDS011;27613;48.116;11.656;2023-04-03T04:33:01;4.47;;;3.30;;
41923;SDS011;27613;48.116;11.656;2023-04-03T04:35:27;6.93;;;4.30;;
41923;SDS011;27613;48.116;11.656;2023-04-03T04:37:52;4.47;;;2.83;;
41923;SDS011;27613;48.116;11.656;2023-04-03T04:40:18;5.57;;;3.97;;
41923;SDS011;27613;48.116;11.656;2023-04-03T04:42:44;5.75;;;3.53;;
41923;SDS011;27613;48.116;11.656;2023-04-03T04:45:09;4.68;;;2.90;;
41923;SDS011;27613;48.116;11.656;2023-04-03T04:47:35;4.90;;;3.60;;
41923;SDS011;27613;48.116;11.656;2023-04-03T04:50:01;3.95;;;2.85;;
41923;SDS011;27613;48.116;11.656;2023-04-03T04:52:26;4.85;;;3.40;;
41923;SDS011;27613;48.116;11.656;2023-04-03T04:54:52;4.60;;;2.83;;
41923;SDS011;27613;48.116;11.656;2023-04-03T04:57:17;4.75;;;3.67;;
41923;SDS011;27613;48.116;11.656;2023-04-03T04:59:43;5.15;;;3.92;;
41923;SDS011;27613;48.116;11.656;2023-04-03T05:02:08;4.45;;;3.50;;
41923;SDS011;27613;48.116;11.656;2023-04-03T05:04:34;4.35;;;2.75;;
41923;SDS011;27613;48.116;11.656;2023-04-03T05:06:59;3.88;;;2.80;;
41923;SDS011;27613;48.116;11.656;2023-04-03T05:09:25;4.35;;;3.17;;
41923;SDS011;27613;48.116;11.656;2023-04-03T05:11:50;4.18;;;3.47;;
41923;SDS011;27613;48.116;11.656;2023-04-03T05:14:16;6.07;;;3.70;;
41923;SDS011;27613;48.116;11.656;2023-04-03T05:16:42;5.35;;;3.50;;
41923;SDS011;27613;48.116;11.656;2023-04-03T05:19:07;4.28;;;3.13;;
41923;SDS011;27613;48.116;11.656;2023-04-03T05:21:33;4.47;;;3.25;;
41923;SDS011;27613;48.116;11.656;2023-04-03T05:23:59;5.38;;;3.03;;
41923;SDS011;27613;48.116;11.656;2023-04-03T05:26:27;4.75;;;3.20;;
41923;SDS011;27613;48.116;11.656;2023-04-03T05:28:53;5.63;;;3.92;;
41923;SDS011;27613;48.116;11.656;2023-04-03T05:31:19;5.60;;;3.38;;
41923;SDS011;27613;48.116;11.656;2023-04-03T05:33:44;4.93;;;3.38;;
41923;SDS011;27613;48.116;11.656;2023-04-03T05:36:11;6.65;;;3.15;;
41923;SDS011;27613;48.116;11.656;2023-04-03T05:38:37;3.55;;;2.70;;
41923;SDS011;27613;48.116;11.656;2023-04-03T05:41:04;5.45;;;3.53;;
41923;SDS011;27613;48.116;11.656;2023-04-03T05:43:30;4.75;;;3.55;;
41923;SDS011;27613;48.116;11.656;2023-04-03T05:45:55;3.67;;;2.75;;
41923;SDS011;27613;48.116;11.656;2023-04-03T05:48:21;5.45;;;3.75;;
41923;SDS011;27613;48.116;11.656;2023-04-03T05:50:46;4.70;;;3.00;;
41923;SDS011;27613;48.116;11.656;2023-04-03T05:53:22;5.95;;;3.00;;
41923;SDS011;27613;48.116;11.656;2023-04-03T05:55:52;3.92;;;2.70;;
41923;SDS011;27613;48.116;11.656;2023-04-03T05:58:18;7.55;;;3.22;;
41923;SDS011;27613;48.116;11.656;2023-04-03T06:00:44;4.18;;;2.90;;
41923;SDS011;27613;48.116;11.656;2023-04-03T06:03:10;3.60;;;2.83;;
41923;SDS011;27613;48.116;11.656;2023-04-03T06:05:35;4.38;;;2.88;;
41923;SDS011;27613;48.116;11.656;2023-04-03T06:08:01;3.85;;;3.00;;
41923;SDS011;27613;48.116;11.656;2023-04-03T06:10:28;7.43;;;3.53;;
41923;SDS011;27613;48.116;11.656;2023-04-03T06:12:54;13.15;;;3.50;;
41923;SDS011;27613;48.116;11.656;2023-04-03T06:15:19;6.45;;;3.45;;
41923;SDS011;27613;48.116;11.656;2023-04-03T06:17:45;4.20;;;2.70;;
41923;SDS011;27613;48.116;11.656;2023-04-03T06:20:11;3.80;;;2.75;;
41923;SDS011;27613;48.116;11.656;2023-04-03T06:22:37;4.75;;;2.90;;
41923;SDS011;27613;48.116;11.656;2023-04-03T06:25:03;5.68;;;3.08;;
41923;SDS011;27613;48.116;11.656;2023-04-03T06:27:29;4.20;;;2.95;;
41923;SDS011;27613;48.116;11.656;2023-04-03T06:29:55;4.82;;;3.00;;
41923;SDS011;27613;48.116;11.656;2023-04-03T06:32:21;4.35;;;2.40;;
41923;SDS011;27613;48.116;11.656;2023-04-03T06:34:46;5.38;;;2.83;;
41923;SDS011;27613;48.116;11.656;2023-04-03T06:37:15;5.55;;;3.55;;
41923;SDS011;27613;48.116;11.656;2023-04-03T06:39:43;4.63;;;2.90;;
41923;SDS011;27613;48.116;11.656;2023-04-03T06:42:09;5.30;;;2.90;;
41923;SDS011;27613;48.116;11.656;2023-04-03T06:44:34;5.40;;;3.25;;
41923;SDS011;27613;48.116;11.656;2023-04-03T06:47:00;5.18;;;3.33;;
41923;SDS011;27613;48.116;11.656;2023-04-03T06:49:26;7.00;;;3.40;;
41923;SDS011;27613;48.116;11.656;2023-04-03T06:51:51;4.72;;;3.38;;
41923;SDS011;27613;48.116;11.656;2023-04-03T06:54:17;4.60;;;2.90;;
41923;SDS011;27613;48.116;11.656;2023-04-03T06:56:43;4.57;;;3.10;;
41923;SDS011;27613;48.116;11.656;2023-04-03T06:59:09;3.20;;;2.60;;
41923;SDS011;27613;48.116;11.656;2023-04-03T07:01:35;3.83;;;2.70;;
41923;SDS011;27613;48.116;11.656;2023-04-03T07:04:00;5.03;;;2.90;;
41923;SDS011;27613;48.116;11.656;2023-04-03T07:06:26;5.68;;;3.28;;
41923;SDS011;27613;48.116;11.656;2023-04-03T07:08:52;7.10;;;3.50;;
41923;SDS011;27613;48.116;11.656;2023-04-03T07:11:17;5.63;;;3.10;;
41923;SDS011;27613;48.116;11.656;2023-04-03T07:13:43;5.50;;;3.33;;
41923;SDS011;27613;48.116;11.656;2023-04-03T07:16:09;12.90;;;3.30;;
41923;SDS011;27613;48.116;11.656;2023-04-03T07:18:37;6.68;;;3.30;;
41923;SDS011;27613;48.116;11.656;2023-04-03T07:21:03;4.80;;;3.22;;
41923;SDS011;27613;48.116;11.656;2023-04-03T07:23:29;4.07;;;3.03;;
41923;SDS011;27613;48.116;11.656;2023-04-03T07:25:55;7.13;;;3.75;;
41923;SDS011;27613;48.116;11.656;2023-04-03T07:28:21;7.93;;;2.75;;
41923;SDS011;27613;48.116;11.656;2023-04-03T07:30:54;4.95;;;3.40;;
41923;SDS011;27613;48.116;11.656;2023-04-03T07:33:30;5.28;;;2.92;;
41923;SDS011;27613;48.116;11.656;2023-04-03T07:35:57;5.50;;;3.40;;
41923;SDS011;27613;48.116;11.656;2023-04-03T07:38:23;5.03;;;3.38;;
41923;SDS011;27613;48.116;11.656;2023-04-03T07:40:49;9.77;;;4.22;;
41923;SDS011;27613;48.116;11.656;2023-04-03T07:43:16;9.32;;;3.67;;
41923;SDS011;27613;48.116;11.656;2023-04-03T07:45:42;4.07;;;2.85;;
41923;SDS011;27613;48.116;11.656;2023-04-03T07:48:08;5.38;;;3.55;;
41923;SDS011;27613;48.116;11.656;2023-04-03T07:50:34;4.28;;;3.00;;
41923;SDS011;27613;48.116;11.656;2023-04-03T07:53:01;8.25;;;2.83;;
41923;SDS011;27613;48.116;11.656;2023-04-03T07:55:27;5.30;;;3.33;;
41923;SDS011;27613;48.116;11.656;2023-04-03T07:57:52;5.47;;;3.33;;
41923;SDS011;27613;48.116;11.656;2023-04-03T08:00:18;9.00;;;3.63;;
41923;SDS011;27613;48.116;11.656;2023-04-03T08:02:44;5.88;;;3.60;;
41923;SDS011;27613;48.116;11.656;2023-04-03T08:05:15;4.75;;;3.40;;
41923;SDS011;27613;48.116;11.656;2023-04-03T08:07:41;4.43;;;3.72;;
41923;SDS011;27613;48.116;11.656;2023-04-03T08:10:07;4.60;;;3.35;;
41923;SDS011;27613;48.116;11.656;2023-04-03T08:12:33;6.53;;;3.70;;
41923;SDS011;27613;48.116;11.656;2023-04-03T08:14:59;13.18;;;4.13;;
41923;SDS011;27613;48.116;11.656;2023-04-03T08:17:26;7.03;;;4.22;;
41923;SDS011;27613;48.116;11.656;2023-04-03T08:19:52;10.20;;;4.05;;
41923;SDS011;27613;48.116;11.656;2023-04-03T08:22:17;6.07;;;3.60;;
41923;SDS011;27613;48.116;11.656;2023-04-03T08:24:43;7.05;;;3.90;;
41923;SDS011;27613;48.116;11.656;2023-04-03T08:27:08;6.15;;;3.78;;
41923;SDS011;27613;48.116;11.656;2023-04-03T08:29:34;6.78;;;3.83;;
41923;SDS011;27613;48.116;11.656;2023-04-03T08:32:02;7.38;;;3.80;;
41923;SDS011;27613;48.116;11.656;2023-04-03T08:34:28;6.05;;;3.50;;
41923;SDS011;27613;48.116;11.656;2023-04-03T08:36:54;5.32;;;3.33;;
41923;SDS011;27613;48.116;11.656;2023-04-03T08:39:20;7.95;;;3.55;;
41923;SDS011;27613;48.116;11.656;2023-04-03T08:41:45;6.18;;;3.50;;
41923;SDS011;27613;48.116;11.656;2023-04-03T08:44:18;7.82;;;3.97;;
41923;SDS011;27613;48.116;11.656;2023-04-03T08:49:59;5.85;;;3.63;;
41923;SDS011;27613;48.116;11.656;2023-04-03T08:55:24;5.53;;;3.63;;
41923;SDS011;27613;48.116;11.656;2023-04-03T08:57:51;6.70;;;3.58;;
41923;SDS011;27613;48.116;11.656;2023-04-03T09:00:37;6.35;;;3.45;;
41923;SDS011;27613;48.116;11.656;2023-04-03T09:03:10;4.30;;;3.25;;
41923;SDS011;27613;48.116;11.656;2023-04-03T09:08:56;5.68;;;3.00;;
41923;SDS011;27613;48.116;11.656;2023-04-03T09:11:24;4.57;;;3.10;;
41923;SDS011;27613;48.116;11.656;2023-04-03T09:14:01;6.07;;;3.35;;
41923;SDS011;27613;48.116;11.656;2023-04-03T09:16:46;5.63;;;3.28;;
41923;SDS011;27613;48.116;11.656;2023-04-03T09:21:57;5.05;;;2.67;;
41923;SDS011;27613;48.116;11.656;2023-04-03T09:24:28;6.55;;;3.47;;
41923;SDS011;27613;48.116;11.656;2023-04-03T09:26:58;6.90;;;3.22;;
41923;SDS011;27613;48.116;11.656;2023-04-03T09:29:30;4.60;;;3.20;;
41923;SDS011;27613;48.116;11.656;2023-04-03T09:32:01;4.30;;;2.70;;
41923;SDS011;27613;48.116;11.656;2023-04-03T09:34:37;5.60;;;3.40;;
41923;SDS011;27613;48.116;11.656;2023-04-03T09:37:06;8.45;;;3.60;;
41923;SDS011;27613;48.116;11.656;2023-04-03T09:39:48;4.53;;;2.83;;
41923;SDS011;27613;48.116;11.656;2023-04-03T09:42:22;3.50;;;2.63;;
41923;SDS011;27613;48.116;11.656;2023-04-03T09:44:53;4.05;;;2.83;;
41923;SDS011;27613;48.116;11.656;2023-04-03T09:47:25;5.72;;;3.15;;
41923;SDS011;27613;48.116;11.656;2023-04-03T09:52:37;5.50;;;3.03;;
41923;SDS011;27613;48.116;11.656;2023-04-03T09:55:17;6.03;;;3.03;;
41923;SDS011;27613;48.116;11.656;2023-04-03T09:57:51;3.78;;;2.90;;
41923;SDS011;27613;48.116;11.656;2023-04-03T10:00:26;3.80;;;2.42;;
41923;SDS011;27613;48.116;11.656;2023-04-03T10:02:59;3.50;;;2.28;;
41923;SDS011;27613;48.116;11.656;2023-04-03T10:05:36;6.47;;;2.78;;
41923;SDS011;27613;48.116;11.656;2023-04-03T10:10:44;5.25;;;3.40;;
41923;SDS011;27613;48.116;11.656;2023-04-03T10:13:13;3.88;;;2.65;;
41923;SDS011;27613;48.116;11.656;2023-04-03T10:15:44;5.47;;;2.65;;
41923;SDS011;27613;48.116;11.656;2023-04-03T10:24:35;4.00;;;2.63;;
41923;SDS011;27613;48.116;11.656;2023-04-03T10:27:04;4.70;;;2.90;;
41923;SDS011;27613;48.116;11.656;2023-04-03T10:35:00;4.82;;;2.83;;
41923;SDS011;27613;48.116;11.656;2023-04-03T10:41:04;7.95;;;3.33;;
41923;SDS011;27613;48.116;11.656;2023-04-03T10:43:39;5.55;;;2.83;;
41923;SDS011;27613;48.116;11.656;2023-04-03T10:46:27;6.18;;;2.88;;
41923;SDS011;27613;48.116;11.656;2023-04-03T10:49:05;3.55;;;2.22;;
41923;SDS011;27613;48.116;11.656;2023-04-03T10:52:02;5.55;;;3.22;;
41923;SDS011;27613;48.116;11.656;2023-04-03T10:54:39;4.97;;;2.95;;
41923;SDS011;27613;48.116;11.656;2023-04-03T10:57:08;5.28;;;3.05;;
41923;SDS011;27613;48.116;11.656;2023-04-03T10:59:53;5.18;;;3.08;;
41923;SDS011;27613;48.116;11.656;2023-04-03T11:02:39;5.65;;;3.05;;
41923;SDS011;27613;48.116;11.656;2023-04-03T11:05:24;4.57;;;2.88;;
41923;SDS011;27613;48.116;11.656;2023-04-03T11:07:57;4.22;;;2.80;;
41923;SDS011;27613;48.116;11.656;2023-04-03T11:10:37;3.72;;;2.55;;
41923;SDS011;27613;48.116;11.656;2023-04-03T11:13:19;5.60;;;2.83;;
41923;SDS011;27613;48.116;11.656;2023-04-03T11:15:50;3.25;;;2.40;;
41923;SDS011;27613;48.116;11.656;2023-04-03T11:18:22;3.42;;;2.10;;
41923;SDS011;27613;48.116;11.656;2023-04-03T11:20:57;5.55;;;2.15;;
41923;SDS011;27613;48.116;11.656;2023-04-03T11:23:28;9.45;;;2.35;;
41923;SDS011;27613;48.116;11.656;2023-04-03T11:26:04;3.78;;;2.35;;
41923;SDS011;27613;48.116;11.656;2023-04-03T11:28:37;5.47;;;2.33;;
41923;SDS011;27613;48.116;11.656;2023-04-03T11:36:45;4.40;;;2.05;;
41923;SDS011;27613;48.116;11.656;2023-04-03T11:39:25;2.35;;;1.83;;
41923;SDS011;27613;48.116;11.656;2023-04-03T11:45:17;3.75;;;2.20;;
41923;SDS011;27613;48.116;11.656;2023-04-03T11:47:49;3.38;;;2.25;;
41923;SDS011;27613;48.116;11.656;2023-04-03T12:05:52;3.45;;;2.00;;
41923;SDS011;27613;48.116;11.656;2023-04-03T12:13:41;3.17;;;1.90;;
41923;SDS011;27613;48.116;11.656;2023-04-03T12:16:24;3.35;;;1.85;;
41923;SDS011;27613;48.116;11.656;2023-04-03T12:29:23;3.20;;;2.10;;
41923;SDS011;27613;48.116;11.656;2023-04-03T12:45:52;4.07;;;1.70;;
41923;SDS011;27613;48.116;11.656;2023-04-03T12:48:27;3.42;;;1.83;;
41923;SDS011;27613;48.116;11.656;2023-04-03T12:50:55;7.57;;;2.20;;
41923;SDS011;27613;48.116;11.656;2023-04-03T12:53:24;2.22;;;1.70;;
41923;SDS011;27613;48.116;11.656;2023-04-03T12:55:56;2.95;;;1.90;;
41923;SDS011;27613;48.116;11.656;2023-04-03T13:00:59;2.60;;;1.55;;
41923;SDS011;27613;48.116;11.656;2023-04-03T13:03:29;3.10;;;1.65;;
41923;SDS011;27613;48.116;11.656;2023-04-03T13:05:57;2.42;;;1.40;;
41923;SDS011;27613;48.116;11.656;2023-04-03T13:08:25;5.00;;;2.40;;
41923;SDS011;27613;48.116;11.656;2023-04-03T13:13:19;6.35;;;1.92;;
41923;SDS011;27613;48.116;11.656;2023-04-03T13:15:47;5.30;;;2.53;;
41923;SDS011;27613;48.116;11.656;2023-04-03T13:18:30;4.55;;;2.30;;
41923;SDS011;27613;48.116;11.656;2023-04-03T13:21:08;3.22;;;1.77;;
41923;SDS011;27613;48.116;11.656;2023-04-03T13:23:47;2.67;;;1.63;;
41923;SDS011;27613;48.116;11.656;2023-04-03T13:26:15;3.53;;;1.90;;
41923;SDS011;27613;48.116;11.656;2023-04-03T13:28:42;2.40;;;1.65;;
41923;SDS011;27613;48.116;11.656;2023-04-03T13:33:39;3.78;;;1.58;;
41923;SDS011;27613;48.116;11.656;2023-04-03T13:36:17;2.40;;;1.40;;
41923;SDS011;27613;48.116;11.656;2023-04-03T13:39:18;8.82;;;1.58;;
41923;SDS011;27613;48.116;11.656;2023-04-03T13:41:54;3.83;;;1.77;;
41923;SDS011;27613;48.116;11.656;2023-04-03T13:46:50;3.85;;;1.67;;
41923;SDS011;27613;48.116;11.656;2023-04-03T13:52:38;3.53;;;1.40;;
41923;SDS011;27613;48.116;11.656;2023-04-03T14:03:19;2.30;;;1.45;;
41923;SDS011;27613;48.116;11.656;2023-04-03T14:06:05;4.05;;;1.77;;
41923;SDS011;27613;48.116;11.656;2023-04-03T14:08:31;2.75;;;1.67;;
41923;SDS011;27613;48.116;11.656;2023-04-03T14:10:57;2.28;;;1.40;;
41923;SDS011;27613;48.116;11.656;2023-04-03T14:13:23;3.10;;;1.73;;
41923;SDS011;27613;48.116;11.656;2023-04-03T14:15:48;2.70;;;1.55;;
41923;SDS011;27613;48.116;11.656;2023-04-03T14:18:18;2.00;;;1.27;;
41923;SDS011;27613;48.116;11.656;2023-04-03T14:20:44;6.45;;;2.05;;
41923;SDS011;27613;48.116;11.656;2023-04-03T14:23:10;5.10;;;1.88;;
41923;SDS011;27613;48.116;11.656;2023-04-03T14:25:36;3.85;;;1.60;;
41923;SDS011;27613;48.116;11.656;2023-04-03T14:28:19;3.03;;;1.58;;
41923;SDS011;27613;48.116;11.656;2023-04-03T14:30:47;3.10;;;1.67;;
41923;SDS011;27613;48.116;11.656;2023-04-03T14:33:16;3.15;;;1.40;;
41923;SDS011;27613;48.116;11.656;2023-04-03T14:35:44;4.47;;;1.60;;
41923;SDS011;27613;48.116;11.656;2023-04-03T14:38:20;3.17;;;1.42;;
41923;SDS011;27613;48.116;11.656;2023-04-03T14:40:46;2.63;;;1.25;;
41923;SDS011;27613;48.116;11.656;2023-04-03T14:43:12;3.80;;;1.48;;
41923;SDS011;27613;48.116;11.656;2023-04-03T14:45:38;1.98;;;1.20;;
41923;SDS011;27613;48.116;11.656;2023-04-03T14:48:04;1.90;;;1.30;;
41923;SDS011;27613;48.116;11.656;2023-04-03T14:50:31;3.95;;;1.45;;
41923;SDS011;27613;48.116;11.656;2023-04-03T14:52:57;1.55;;;1.02;;
41923;SDS011;27613;48.116;11.656;2023-04-03T14:55:24;3.80;;;1.38;;
41923;SDS011;27613;48.116;11.656;2023-04-03T14:57:50;9.23;;;1.23;;
41923;SDS011;27613;48.116;11.656;2023-04-03T15:00:18;2.53;;;1.50;;
41923;SDS011;27613;48.116;11.656;2023-04-03T15:02:45;1.73;;;1.30;;
41923;SDS011;27613;48.116;11.656;2023-04-03T15:05:12;7.65;;;1.85;;
41923;SDS011;27613;48.116;11.656;2023-04-03T15:07:41;5.72;;;1.30;;
41923;SDS011;27613;48.116;11.656;2023-04-03T15:12:44;3.72;;;1.65;;
41923;SDS011;27613;48.116;11.656;2023-04-03T15:15:11;2.47;;;1.38;;
41923;SDS011;27613;48.116;11.656;2023-04-03T15:17:36;2.70;;;1.30;;
41923;SDS011;27613;48.116;11.656;2023-04-03T15:20:03;1.85;;;1.17;;
41923;SDS011;27613;48.116;11.656;2023-04-03T15:22:36;2.83;;;1.52;;
41923;SDS011;27613;48.116;11.656;2023-04-03T15:25:01;6.90;;;2.20;;
41923;SDS011;27613;48.116;11.656;2023-04-03T15:27:27;2.30;;;1.25;;
41923;SDS011;27613;48.116;11.656;2023-04-03T15:29:53;3.00;;;1.85;;
41923;SDS011;27613;48.116;11.656;2023-04-03T15:32:19;2.58;;;1.50;;
41923;SDS011;27613;48.116;11.656;2023-04-03T15:34:44;3.20;;;1.73;;
41923;SDS011;27613;48.116;11.656;2023-04-03T15:37:10;2.55;;;1.35;;
41923;SDS011;27613;48.116;11.656;2023-04-03T15:39:35;2.47;;;1.30;;
41923;SDS011;27613;48.116;11.656;2023-04-03T15:42:01;2.40;;;1.30;;
41923;SDS011;27613;48.116;11.656;2023-04-03T15:44:31;1.27;;;0.93;;
41923;SDS011;27613;48.116;11.656;2023-04-03T15:46:58;2.13;;;1.40;;
41923;SDS011;27613;48.116;11.656;2023-04-03T15:49:25;2.45;;;1.20;;
41923;SDS011;27613;48.116;11.656;2023-04-03T15:51:51;2.13;;;1.40;;
41923;SDS011;27613;48.116;11.656;2023-04-03T15:54:17;2.83;;;1.30;;
41923;SDS011;27613;48.116;11.656;2023-04-03T15:56:43;2.53;;;1.35;;
41923;SDS011;27613;48.116;11.656;2023-04-03T15:59:08;2.75;;;1.60;;
41923;SDS011;27613;48.116;11.656;2023-04-03T16:01:34;2.33;;;1.20;;
41923;SDS011;27613;48.116;11.656;2023-04-03T16:04:00;2.42;;;1.30;;
41923;SDS011;27613;48.116;11.656;2023-04-03T16:06:26;2.20;;;1.27;;
41923;SDS011;27613;48.116;11.656;2023-04-03T16:08:54;2.75;;;1.40;;
41923;SDS011;27613;48.116;11.656;2023-04-03T16:11:22;16.10;;;1.75;;
41923;SDS011;27613;48.116;11.656;2023-04-03T16:13:51;1.88;;;1.17;;
41923;SDS011;27613;48.116;11.656;2023-04-03T16:16:17;2.63;;;1.48;;
41923;SDS011;27613;48.116;11.656;2023-04-03T16:18:43;2.97;;;1.55;;
41923;SDS011;27613;48.116;11.656;2023-04-03T16:21:08;2.85;;;1.38;;
41923;SDS011;27613;48.116;11.656;2023-04-03T16:23:34;2.78;;;1.35;;
41923;SDS011;27613;48.116;11.656;2023-04-03T16:26:00;2.75;;;1.52;;
41923;SDS011;27613;48.116;11.656;2023-04-03T16:28:26;3.03;;;1.60;;
41923;SDS011;27613;48.116;11.656;2023-04-03T16:30:51;2.95;;;1.48;;
41923;SDS011;27613;48.116;11.656;2023-04-03T16:33:17;3.75;;;1.80;;
41923;SDS011;27613;48.116;11.656;2023-04-03T16:35:46;3.83;;;1.75;;
41923;SDS011;27613;48.116;11.656;2023-04-03T16:38:13;3.28;;;1.50;;